createdAt,value
2019-02-06T00:09:07.784Z,4.70
2019-02-06T00:19:10.095Z,4.60
2019-02-06T00:29:13.075Z,4.60
2019-02-06T00:39:15.329Z,4.50
2019-02-06T00:49:17.259Z,4.50
2019-02-06T00:59:19.331Z,4.50
2019-02-06T01:09:21.776Z,4.40
2019-02-06T01:19:23.823Z,4.50
2019-02-06T01:29:27.571Z,4.40
2019-02-06T01:39:29.618Z,4.30
2019-02-06T01:49:31.883Z,4.30
2019-02-06T01:59:34.254Z,4.30
2019-02-06T02:09:36.280Z,4.20
2019-02-06T02:19:39.386Z,4.20
2019-02-06T02:29:41.451Z,4.20
2019-02-06T02:39:43.827Z,4.20
2019-02-06T02:49:45.905Z,4.20
2019-02-06T02:59:48.373Z,4.20
2019-02-06T03:09:50.315Z,4.10
2019-02-06T03:19:52.882Z,4.10
2019-02-06T03:29:55.237Z,4.10
2019-02-06T03:39:57.670Z,4.10
2019-02-06T03:49:59.673Z,4.10
2019-02-06T04:00:01.954Z,4.10
2019-02-06T04:10:05.914Z,4.10
2019-02-06T04:20:09.142Z,4.10
2019-02-06T04:30:12.475Z,4.10
2019-02-06T04:40:15.083Z,4.10
2019-02-06T04:50:17.546Z,4.10
2019-02-06T05:00:23.784Z,4.10
2019-02-06T05:10:25.810Z,4.20
2019-02-06T05:20:36.409Z,4.20
2019-02-06T05:30:39.168Z,4.10
2019-02-06T05:40:41.510Z,4.10
2019-02-06T05:50:43.547Z,4.10
2019-02-06T06:00:45.569Z,4.00
2019-02-06T06:10:48.154Z,4.00
2019-02-06T06:20:50.455Z,4.00
2019-02-06T06:30:52.557Z,4.00
2019-02-06T06:40:54.848Z,4.00
2019-02-06T06:50:57.595Z,4.00
2019-02-06T07:00:59.860Z,4.10
2019-02-06T07:11:02.149Z,4.10
2019-02-06T07:21:04.402Z,4.20
2019-02-06T07:31:06.507Z,4.30
2019-02-06T07:41:08.465Z,4.40
2019-02-06T07:51:11.042Z,4.60
2019-02-06T08:01:13.194Z,4.80
2019-02-06T08:11:15.169Z,5.00
2019-02-06T08:21:17.364Z,5.10
2019-02-06T08:31:20.301Z,5.20
2019-02-06T08:41:22.268Z,5.40
2019-02-06T08:51:24.381Z,5.50
2019-02-06T09:01:26.765Z,5.70
2019-02-06T09:11:29.051Z,5.90
2019-02-06T09:21:30.994Z,6.20
2019-02-06T09:31:33.163Z,6.50
2019-02-06T09:41:35.367Z,6.80
2019-02-06T09:51:37.491Z,7.20
2019-02-06T10:01:39.981Z,7.50
2019-02-06T10:11:42.039Z,7.70
2019-02-06T10:21:44.087Z,7.70
2019-02-06T10:31:46.614Z,7.90
2019-02-06T10:41:48.647Z,7.90
2019-02-06T10:51:50.738Z,8.20
2019-02-06T11:01:52.874Z,8.30
2019-02-06T11:11:54.802Z,8.40
2019-02-06T11:21:57.312Z,8.50
2019-02-06T11:31:59.514Z,8.70
2019-02-06T11:42:01.846Z,8.90
2019-02-06T11:52:04.360Z,9.00
2019-02-06T12:02:06.363Z,9.10
2019-02-06T12:12:09.988Z,9.10
2019-02-06T12:22:12.432Z,9.10
2019-02-06T12:32:14.968Z,9.20
2019-02-06T12:42:16.903Z,9.20
2019-02-06T12:52:18.855Z,9.60
2019-02-06T13:02:21.412Z,10.20
2019-02-06T13:12:23.380Z,10.70
2019-02-06T13:22:25.378Z,10.80
2019-02-06T13:32:27.800Z,11.80
2019-02-06T13:42:29.791Z,11.60
2019-02-06T13:52:31.743Z,11.20
2019-02-06T14:02:33.966Z,10.90
2019-02-06T14:12:36.869Z,11.60
2019-02-06T14:22:38.820Z,12.00
2019-02-06T14:33:05.564Z,11.30
2019-02-06T14:43:36.466Z,10.70
2019-02-06T14:54:03.605Z,10.40
2019-02-06T15:05:02.355Z,10.30
2019-02-06T15:15:49.750Z,10.20
2019-02-06T15:26:35.089Z,9.90
2019-02-06T15:37:13.276Z,9.90
2019-02-06T15:58:45.944Z,10.00
2019-02-06T16:09:25.863Z,9.90
2019-02-06T16:20:05.264Z,9.70
2019-02-06T16:30:51.086Z,9.40
2019-02-06T16:41:13.035Z,9.30
2019-02-06T16:51:34.734Z,9.20
2019-02-06T17:02:20.988Z,9.10
2019-02-06T17:13:13.821Z,9.20
2019-02-06T17:23:26.410Z,9.20
2019-02-06T17:33:56.658Z,9.20
2019-02-06T17:44:20.950Z,9.10
2019-02-06T17:54:44.607Z,9.00
2019-02-06T18:04:47.772Z,9.10
2019-02-06T18:14:50.925Z,9.00
2019-02-06T18:24:52.738Z,8.90
2019-02-06T18:34:54.751Z,8.90
2019-02-06T18:44:57.052Z,8.80
2019-02-06T18:54:59.246Z,8.70
2019-02-06T19:05:01.660Z,8.60
2019-02-06T19:15:05.388Z,8.60
2019-02-06T19:25:08.651Z,8.40
2019-02-06T19:35:10.879Z,8.30
2019-02-06T19:45:13.499Z,8.20
2019-02-06T19:55:15.442Z,8.20
2019-02-06T20:05:17.910Z,8.10
2019-02-06T20:15:20.563Z,8.10
2019-02-06T20:25:22.907Z,8.00
2019-02-06T20:35:25.320Z,7.90
2019-02-06T20:45:29.581Z,7.90
2019-02-06T20:55:31.514Z,7.90
2019-02-06T21:05:33.499Z,7.90
2019-02-06T21:15:36.755Z,7.80
2019-02-06T21:25:39.511Z,7.80
2019-02-06T21:35:43.068Z,7.80
2019-02-06T21:45:45.050Z,7.70
2019-02-06T21:55:47.369Z,7.70
2019-02-06T22:05:49.471Z,7.70
2019-02-06T22:15:51.671Z,7.60
2019-02-06T22:25:53.623Z,7.60
2019-02-06T22:35:56.219Z,7.60
2019-02-06T22:45:58.138Z,7.50
2019-02-06T22:56:00.106Z,7.50
2019-02-06T23:06:02.732Z,7.50
2019-02-06T23:16:05.132Z,7.50
2019-02-06T23:26:07.447Z,7.40
2019-02-06T23:36:09.964Z,7.30
2019-02-06T23:46:12.034Z,7.30
2019-02-06T23:56:13.986Z,7.20
